sensor_id;sensor_type;location;lat;lon;timestamp;pressure;altitude;pressure_sealevel;temperature;humidity
76551;BME280;68768;53.156;18.164;2024-03-06T00:00:00;101802.51;;;4.35;89.29
76551;BME280;68768;53.156;18.164;2024-03-06T00:02:27;101800.77;;;4.36;89.45
76551;BME280;68768;53.156;18.164;2024-03-06T00:04:54;101805.16;;;4.37;89.35
76551;BME280;68768;53.156;18.164;2024-03-06T00:07:21;101805.50;;;4.38;89.28
76551;BME280;68768;53.156;18.164;2024-03-06T00:09:48;101809.89;;;4.38;89.24
76551;BME280;68768;53.156;18.164;2024-03-06T00:12:15;101815.86;;;4.38;89.35
76551;BME280;68768;53.156;18.164;2024-03-06T00:14:41;101819.55;;;4.38;89.70
76551;BME280;68768;53.156;18.164;2024-03-06T00:17:09;101821.31;;;4.38;89.51
76551;BME280;68768;53.156;18.164;2024-03-06T00:19:36;101821.14;;;4.39;89.35
76551;BME280;68768;53.156;18.164;2024-03-06T00:22:03;101820.45;;;4.40;89.69
76551;BME280;68768;53.156;18.164;2024-03-06T00:24:30;101821.67;;;4.40;89.44
76551;BME280;68768;53.156;18.164;2024-03-06T00:26:57;101821.49;;;4.40;89.59
76551;BME280;68768;53.156;18.164;2024-03-06T00:29:23;101824.48;;;4.39;89.71
76551;BME280;68768;53.156;18.164;2024-03-06T00:31:51;101828.52;;;4.40;89.44
76551;BME280;68768;53.156;18.164;2024-03-06T00:34:17;101827.65;;;4.40;89.72
76551;BME280;68768;53.156;18.164;2024-03-06T00:36:44;101830.46;;;4.40;89.55
76551;BME280;68768;53.156;18.164;2024-03-06T00:39:12;101831.70;;;4.41;89.57
76551;BME280;68768;53.156;18.164;2024-03-06T00:41:41;101829.24;;;4.42;89.45
76551;BME280;68768;53.156;18.164;2024-03-06T00:44:08;101830.13;;;4.42;89.51
76551;BME280;68768;53.156;18.164;2024-03-06T00:46:35;101833.66;;;4.43;89.51
76551;BME280;68768;53.156;18.164;2024-03-06T00:49:02;101837.89;;;4.45;89.31
76551;BME280;68768;53.156;18.164;2024-03-06T00:51:29;101844.57;;;4.45;89.39
76551;BME280;68768;53.156;18.164;2024-03-06T00:53:57;101844.92;;;4.45;89.41
76551;BME280;68768;53.156;18.164;2024-03-06T00:56:24;101846.69;;;4.44;89.23
76551;BME280;68768;53.156;18.164;2024-03-06T00:58:50;101849.31;;;4.44;89.56
76551;BME280;68768;53.156;18.164;2024-03-06T01:01:17;101847.20;;;4.45;89.41
76551;BME280;68768;53.156;18.164;2024-03-06T01:03:45;101845.62;;;4.45;89.59
76551;BME280;68768;53.156;18.164;2024-03-06T01:06:12;101848.43;;;4.45;89.55
76551;BME280;68768;53.156;18.164;2024-03-06T01:08:39;101854.24;;;4.46;89.41
76551;BME280;68768;53.156;18.164;2024-03-06T01:11:06;101859.86;;;4.46;89.80
76551;BME280;68768;53.156;18.164;2024-03-06T01:13:33;101860.21;;;4.45;89.84
76551;BME280;68768;53.156;18.164;2024-03-06T01:16:00;101863.38;;;4.45;89.52
76551;BME280;68768;53.156;18.164;2024-03-06T01:18:27;101864.60;;;4.46;89.43
76551;BME280;68768;53.156;18.164;2024-03-06T01:20:54;101868.48;;;4.47;89.41
76551;BME280;68768;53.156;18.164;2024-03-06T01:23:21;101866.21;;;4.47;89.54
76551;BME280;68768;53.156;18.164;2024-03-06T01:25:48;101866.90;;;4.47;89.61
76551;BME280;68768;53.156;18.164;2024-03-06T01:28:15;101866.39;;;4.48;89.71
76551;BME280;68768;53.156;18.164;2024-03-06T01:30:41;101870.95;;;4.48;89.40
76551;BME280;68768;53.156;18.164;2024-03-06T01:33:08;101869.19;;;4.48;89.58
76551;BME280;68768;53.156;18.164;2024-03-06T01:35:36;101871.27;;;4.49;89.64
76551;BME280;68768;53.156;18.164;2024-03-06T01:38:03;101872.17;;;4.50;89.60
76551;BME280;68768;53.156;18.164;2024-03-06T01:40:30;101872.17;;;4.51;89.75
76551;BME280;68768;53.156;18.164;2024-03-06T01:42:57;101874.98;;;4.51;89.62
76551;BME280;68768;53.156;18.164;2024-03-06T01:45:24;101874.10;;;4.51;89.70
76551;BME280;68768;53.156;18.164;2024-03-06T01:47:51;101876.21;;;4.50;89.61
76551;BME280;68768;53.156;18.164;2024-03-06T01:50:18;101876.58;;;4.51;89.76
76551;BME280;68768;53.156;18.164;2024-03-06T01:52:46;101878.67;;;4.50;89.94
76551;BME280;68768;53.156;18.164;2024-03-06T01:55:14;101879.20;;;4.48;89.97
76551;BME280;68768;53.156;18.164;2024-03-06T01:57:42;101879.02;;;4.48;89.93
76551;BME280;68768;53.156;18.164;2024-03-06T02:00:09;101880.60;;;4.48;89.68
76551;BME280;68768;53.156;18.164;2024-03-06T02:02:43;101876.55;;;4.48;89.88
76551;BME280;68768;53.156;18.164;2024-03-06T02:05:10;101871.30;;;4.47;90.20
76551;BME280;68768;53.156;18.164;2024-03-06T02:07:38;101873.40;;;4.46;90.13
76551;BME280;68768;53.156;18.164;2024-03-06T02:10:07;101879.73;;;4.44;90.15
76551;BME280;68768;53.156;18.164;2024-03-06T02:12:36;101883.94;;;4.45;90.09
76551;BME280;68768;53.156;18.164;2024-03-06T02:15:04;101882.52;;;4.45;90.04
76551;BME280;68768;53.156;18.164;2024-03-06T02:17:31;101876.73;;;4.44;90.03
76551;BME280;68768;53.156;18.164;2024-03-06T02:19:58;101878.13;;;4.45;89.89
76551;BME280;68768;53.156;18.164;2024-03-06T02:22:25;101882.36;;;4.46;90.04
76551;BME280;68768;53.156;18.164;2024-03-06T02:24:52;101882.53;;;4.46;90.21
76551;BME280;68768;53.156;18.164;2024-03-06T02:27:19;101880.42;;;4.45;90.15
76551;BME280;68768;53.156;18.164;2024-03-06T02:29:46;101874.98;;;4.46;90.02
76551;BME280;68768;53.156;18.164;2024-03-06T02:32:13;101878.67;;;4.46;90.16
76551;BME280;68768;53.156;18.164;2024-03-06T02:34:41;101882.88;;;4.45;90.34
76551;BME280;68768;53.156;18.164;2024-03-06T02:37:07;101880.77;;;4.44;90.26
76551;BME280;68768;53.156;18.164;2024-03-06T02:39:34;101881.83;;;4.45;90.18
76551;BME280;68768;53.156;18.164;2024-03-06T02:42:01;101878.31;;;4.46;90.36
76551;BME280;68768;53.156;18.164;2024-03-06T02:44:28;101878.67;;;4.46;90.37
76551;BME280;68768;53.156;18.164;2024-03-06T02:46:55;101876.02;;;4.44;90.51
76551;BME280;68768;53.156;18.164;2024-03-06T02:49:22;101880.95;;;4.45;90.70
76551;BME280;68768;53.156;18.164;2024-03-06T02:51:48;101881.83;;;4.45;90.53
76551;BME280;68768;53.156;18.164;2024-03-06T02:54:15;101881.13;;;4.45;90.46
76551;BME280;68768;53.156;18.164;2024-03-06T02:56:42;101883.41;;;4.46;90.52
76551;BME280;68768;53.156;18.164;2024-03-06T02:59:09;101884.64;;;4.46;90.60
76551;BME280;68768;53.156;18.164;2024-03-06T03:01:36;101886.93;;;4.46;90.71
76551;BME280;68768;53.156;18.164;2024-03-06T03:04:03;101884.48;;;4.47;90.60
76551;BME280;68768;53.156;18.164;2024-03-06T03:06:30;101888.35;;;4.47;90.92
76551;BME280;68768;53.156;18.164;2024-03-06T03:08:57;101890.28;;;4.48;90.89
76551;BME280;68768;53.156;18.164;2024-03-06T03:11:24;101887.64;;;4.48;90.78
76551;BME280;68768;53.156;18.164;2024-03-06T03:13:51;101893.98;;;4.49;90.96
76551;BME280;68768;53.156;18.164;2024-03-06T03:16:19;101891.86;;;4.49;90.73
76551;BME280;68768;53.156;18.164;2024-03-06T03:18:47;101885.00;;;4.50;90.99
76551;BME280;68768;53.156;18.164;2024-03-06T03:21:15;101890.81;;;4.51;90.96
76551;BME280;68768;53.156;18.164;2024-03-06T03:23:41;101890.45;;;4.51;91.21
76551;BME280;68768;53.156;18.164;2024-03-06T03:26:09;101891.52;;;4.51;91.26
76551;BME280;68768;53.156;18.164;2024-03-06T03:28:39;101892.04;;;4.51;91.33
76551;BME280;68768;53.156;18.164;2024-03-06T03:31:09;101898.55;;;4.51;91.27
76551;BME280;68768;53.156;18.164;2024-03-06T03:33:40;101899.08;;;4.52;91.68
76551;BME280;68768;53.156;18.164;2024-03-06T03:36:08;101895.55;;;4.51;91.68
76551;BME280;68768;53.156;18.164;2024-03-06T03:38:37;101891.86;;;4.52;91.36
76551;BME280;68768;53.156;18.164;2024-03-06T03:41:12;101890.83;;;4.53;91.43
76551;BME280;68768;53.156;18.164;2024-03-06T03:43:39;101895.94;;;4.54;91.17
76551;BME280;68768;53.156;18.164;2024-03-06T03:46:07;101896.48;;;4.55;91.05
76551;BME280;68768;53.156;18.164;2024-03-06T03:48:34;101901.76;;;4.56;91.43
76551;BME280;68768;53.156;18.164;2024-03-06T03:51:04;101900.01;;;4.57;91.51
76551;BME280;68768;53.156;18.164;2024-03-06T03:53:31;101904.23;;;4.58;91.32
76551;BME280;68768;53.156;18.164;2024-03-06T03:55:59;101905.09;;;4.59;91.43
76551;BME280;68768;53.156;18.164;2024-03-06T03:58:26;101906.68;;;4.60;91.42
76551;BME280;68768;53.156;18.164;2024-03-06T04:00:53;101907.75;;;4.61;91.57
76551;BME280;68768;53.156;18.164;2024-03-06T04:03:21;101910.58;;;4.62;91.43
76551;BME280;68768;53.156;18.164;2024-03-06T04:05:49;101911.64;;;4.64;91.46
76551;BME280;68768;53.156;18.164;2024-03-06T04:08:16;101912.17;;;4.64;91.38
76551;BME280;68768;53.156;18.164;2024-03-06T04:10:43;101914.29;;;4.65;91.29
76551;BME280;68768;53.156;18.164;2024-03-06T04:13:15;101914.11;;;4.65;91.39
76551;BME280;68768;53.156;18.164;2024-03-06T04:15:42;101912.34;;;4.64;91.49
76551;BME280;68768;53.156;18.164;2024-03-06T04:18:09;101914.10;;;4.64;91.51
76551;BME280;68768;53.156;18.164;2024-03-06T04:20:36;101914.81;;;4.65;91.47
76551;BME280;68768;53.156;18.164;2024-03-06T04:23:03;101913.93;;;4.65;91.71
76551;BME280;68768;53.156;18.164;2024-03-06T04:25:30;101907.26;;;4.66;91.40
76551;BME280;68768;53.156;18.164;2024-03-06T04:27:57;101905.69;;;4.67;91.57
76551;BME280;68768;53.156;18.164;2024-03-06T04:30:24;101903.93;;;4.67;91.54
76551;BME280;68768;53.156;18.164;2024-03-06T04:32:51;101899.71;;;4.67;91.53
76551;BME280;68768;53.156;18.164;2024-03-06T04:35:18;101901.62;;;4.69;91.79
76551;BME280;68768;53.156;18.164;2024-03-06T04:37:45;101898.98;;;4.69;91.68
76551;BME280;68768;53.156;18.164;2024-03-06T04:40:12;101898.64;;;4.70;91.63
76551;BME280;68768;53.156;18.164;2024-03-06T04:42:41;101903.22;;;4.70;91.94
76551;BME280;68768;53.156;18.164;2024-03-06T04:45:14;101902.52;;;4.72;91.76
76551;BME280;68768;53.156;18.164;2024-03-06T04:47:42;101903.95;;;4.74;91.75
76551;BME280;68768;53.156;18.164;2024-03-06T04:50:12;101908.01;;;4.75;91.63
76551;BME280;68768;53.156;18.164;2024-03-06T04:52:42;101907.14;;;4.76;91.58
76551;BME280;68768;53.156;18.164;2024-03-06T04:55:11;101911.89;;;4.77;91.46
76551;BME280;68768;53.156;18.164;2024-03-06T04:57:39;101906.78;;;4.78;91.40
76551;BME280;68768;53.156;18.164;2024-03-06T05:00:08;101910.81;;;4.78;91.57
76551;BME280;68768;53.156;18.164;2024-03-06T05:02:35;101916.45;;;4.79;91.77
76551;BME280;68768;53.156;18.164;2024-03-06T05:05:04;101916.80;;;4.80;91.71
76551;BME280;68768;53.156;18.164;2024-03-06T05:07:31;101918.93;;;4.81;91.48
76551;BME280;68768;53.156;18.164;2024-03-06T05:09:59;101917.34;;;4.82;91.50
76551;BME280;68768;53.156;18.164;2024-03-06T05:12:27;101913.66;;;4.83;91.82
76551;BME280;68768;53.156;18.164;2024-03-06T05:14:55;101921.58;;;4.83;91.63
76551;BME280;68768;53.156;18.164;2024-03-06T05:17:22;101928.96;;;4.84;91.84
76551;BME280;68768;53.156;18.164;2024-03-06T05:19:50;101925.98;;;4.84;91.83
76551;BME280;68768;53.156;18.164;2024-03-06T05:22:17;101935.30;;;4.84;91.88
76551;BME280;68768;53.156;18.164;2024-03-06T05:24:44;101936.19;;;4.85;91.80
76551;BME280;68768;53.156;18.164;2024-03-06T05:27:11;101937.25;;;4.86;91.90
76551;BME280;68768;53.156;18.164;2024-03-06T05:29:43;101942.19;;;4.87;91.96
76551;BME280;68768;53.156;18.164;2024-03-06T05:32:10;101940.06;;;4.86;91.65
76551;BME280;68768;53.156;18.164;2024-03-06T05:34:37;101942.36;;;4.88;91.67
76551;BME280;68768;53.156;18.164;2024-03-06T05:37:04;101943.93;;;4.89;91.96
76551;BME280;68768;53.156;18.164;2024-03-06T05:39:32;101946.05;;;4.90;91.72
76551;BME280;68768;53.156;18.164;2024-03-06T05:42:05;101951.50;;;4.91;91.86
76551;BME280;68768;53.156;18.164;2024-03-06T05:44:33;101952.74;;;4.92;91.95
76551;BME280;68768;53.156;18.164;2024-03-06T05:47:01;101956.63;;;4.92;92.10
76551;BME280;68768;53.156;18.164;2024-03-06T05:49:29;101961.37;;;4.93;92.46
76551;BME280;68768;53.156;18.164;2024-03-06T05:51:56;101963.48;;;4.93;92.20
76551;BME280;68768;53.156;18.164;2024-03-06T05:54:23;101967.01;;;4.93;92.35
76551;BME280;68768;53.156;18.164;2024-03-06T05:56:51;101965.79;;;4.93;92.42
76551;BME280;68768;53.156;18.164;2024-03-06T05:59:18;101967.89;;;4.94;92.67
76551;BME280;68768;53.156;18.164;2024-03-06T06:01:46;101972.13;;;4.95;92.43
76551;BME280;68768;53.156;18.164;2024-03-06T06:04:13;101976.54;;;4.96;92.59
76551;BME280;68768;53.156;18.164;2024-03-06T06:06:41;101975.48;;;4.96;92.38
76551;BME280;68768;53.156;18.164;2024-03-06T06:09:08;101974.08;;;4.98;92.68
76551;BME280;68768;53.156;18.164;2024-03-06T06:11:43;101974.79;;;4.98;92.68
76551;BME280;68768;53.156;18.164;2024-03-06T06:14:10;101976.00;;;4.99;92.95
76551;BME280;68768;53.156;18.164;2024-03-06T06:16:38;101979.34;;;4.99;92.88
76551;BME280;68768;53.156;18.164;2024-03-06T06:19:07;101981.27;;;5.00;93.10
76551;BME280;68768;53.156;18.164;2024-03-06T06:21:34;101985.69;;;5.01;92.89
76551;BME280;68768;53.156;18.164;2024-03-06T06:24:03;101990.80;;;5.01;92.91
76551;BME280;68768;53.156;18.164;2024-03-06T06:26:31;101993.78;;;5.01;93.04
76551;BME280;68768;53.156;18.164;2024-03-06T06:28:58;101994.14;;;5.01;92.98
76551;BME280;68768;53.156;18.164;2024-03-06T06:31:25;101996.42;;;5.01;92.94
76551;BME280;68768;53.156;18.164;2024-03-06T06:33:53;102003.64;;;5.03;93.03
76551;BME280;68768;53.156;18.164;2024-03-06T06:36:20;102001.02;;;5.03;92.96
76551;BME280;68768;53.156;18.164;2024-03-06T06:38:47;102005.07;;;5.04;93.10
76551;BME280;68768;53.156;18.164;2024-03-06T06:41:15;102005.42;;;5.05;93.10
76551;BME280;68768;53.156;18.164;2024-03-06T06:43:43;102006.48;;;5.05;93.12
76551;BME280;68768;53.156;18.164;2024-03-06T06:46:10;102007.19;;;5.06;93.11
76551;BME280;68768;53.156;18.164;2024-03-06T06:48:37;102007.19;;;5.06;92.99
76551;BME280;68768;53.156;18.164;2024-03-06T06:51:04;102008.09;;;5.07;92.99
76551;BME280;68768;53.156;18.164;2024-03-06T06:53:31;102002.63;;;5.07;92.74
76551;BME280;68768;53.156;18.164;2024-03-06T06:55:58;102004.56;;;5.08;93.12
76551;BME280;68768;53.156;18.164;2024-03-06T06:58:25;102007.73;;;5.08;93.18
76551;BME280;68768;53.156;18.164;2024-03-06T07:00:53;102008.79;;;5.09;93.18
76551;BME280;68768;53.156;18.164;2024-03-06T07:03:20;102010.01;;;5.09;93.16
76551;BME280;68768;53.156;18.164;2024-03-06T07:05:56;102010.01;;;5.10;93.24
76551;BME280;68768;53.156;18.164;2024-03-06T07:08:24;102014.95;;;5.11;93.05
76551;BME280;68768;53.156;18.164;2024-03-06T07:10:50;102013.53;;;5.10;93.01
76551;BME280;68768;53.156;18.164;2024-03-06T07:13:20;102018.30;;;5.12;93.23
76551;BME280;68768;53.156;18.164;2024-03-06T07:15:47;102021.81;;;5.12;93.28
76551;BME280;68768;53.156;18.164;2024-03-06T07:18:14;102021.82;;;5.12;93.09
76551;BME280;68768;53.156;18.164;2024-03-06T07:20:41;102024.28;;;5.13;93.13
76551;BME280;68768;53.156;18.164;2024-03-06T07:23:08;102027.11;;;5.13;93.15
76551;BME280;68768;53.156;18.164;2024-03-06T07:25:35;102025.18;;;5.14;92.96
76551;BME280;68768;53.156;18.164;2024-03-06T07:28:02;102029.77;;;5.17;92.88
76551;BME280;68768;53.156;18.164;2024-03-06T07:30:30;102026.09;;;5.18;93.01
76551;BME280;68768;53.156;18.164;2024-03-06T07:32:57;102029.42;;;5.19;93.08
76551;BME280;68768;53.156;18.164;2024-03-06T07:35:25;102034.70;;;5.19;92.99
76551;BME280;68768;53.156;18.164;2024-03-06T07:37:52;102032.93;;;5.19;93.05
76551;BME280;68768;53.156;18.164;2024-03-06T07:40:19;102039.98;;;5.20;92.98
76551;BME280;68768;53.156;18.164;2024-03-06T07:42:45;102045.80;;;5.21;92.80
76551;BME280;68768;53.156;18.164;2024-03-06T07:45:12;102046.33;;;5.22;92.73
76551;BME280;68768;53.156;18.164;2024-03-06T07:47:39;102049.84;;;5.22;92.77
76551;BME280;68768;53.156;18.164;2024-03-06T07:50:08;102052.33;;;5.23;92.67
76551;BME280;68768;53.156;18.164;2024-03-06T07:52:37;102050.39;;;5.24;92.69
76551;BME280;68768;53.156;18.164;2024-03-06T07:55:03;102053.58;;;5.26;92.50
76551;BME280;68768;53.156;18.164;2024-03-06T07:57:29;102059.75;;;5.27;92.49
76551;BME280;68768;53.156;18.164;2024-03-06T07:59:54;102058.33;;;5.26;92.51
76551;BME280;68768;53.156;18.164;2024-03-06T08:02:21;102065.20;;;5.27;92.26
76551;BME280;68768;53.156;18.164;2024-03-06T08:04:48;102065.91;;;5.27;92.24
76551;BME280;68768;53.156;18.164;2024-03-06T08:07:14;102063.61;;;5.26;92.26
76551;BME280;68768;53.156;18.164;2024-03-06T08:09:40;102070.30;;;5.26;92.01
76551;BME280;68768;53.156;18.164;2024-03-06T08:12:06;102075.41;;;5.26;91.65
76551;BME280;68768;53.156;18.164;2024-03-06T08:14:32;102074.36;;;5.27;91.81
76551;BME280;68768;53.156;18.164;2024-03-06T08:16:58;102078.22;;;5.26;91.69
76551;BME280;68768;53.156;18.164;2024-03-06T08:19:23;102081.22;;;5.27;91.41
76551;BME280;68768;53.156;18.164;2024-03-06T08:21:50;102081.75;;;5.27;91.37
76551;BME280;68768;53.156;18.164;2024-03-06T08:24:16;102084.23;;;5.29;90.97
76551;BME280;68768;53.156;18.164;2024-03-06T08:26:43;102086.34;;;5.29;90.84
76551;BME280;68768;53.156;18.164;2024-03-06T08:29:08;102086.66;;;5.30;90.81
76551;BME280;68768;53.156;18.164;2024-03-06T08:31:34;102088.26;;;5.31;90.68
76551;BME280;68768;53.156;18.164;2024-03-06T08:34:01;102088.80;;;5.32;90.71
76551;BME280;68768;53.156;18.164;2024-03-06T08:36:27;102091.09;;;5.32;90.67
76551;BME280;68768;53.156;18.164;2024-03-06T08:38:53;102088.98;;;5.33;90.46
76551;BME280;68768;53.156;18.164;2024-03-06T08:41:19;102089.36;;;5.36;90.55
76551;BME280;68768;53.156;18.164;2024-03-06T08:43:45;102090.09;;;5.38;90.70
76551;BME280;68768;53.156;18.164;2024-03-06T08:46:11;102092.89;;;5.41;90.75
76551;BME280;68768;53.156;18.164;2024-03-06T08:48:38;102094.30;;;5.42;90.62
76551;BME280;68768;53.156;18.164;2024-03-06T08:51:04;102092.73;;;5.44;90.59
76551;BME280;68768;53.156;18.164;2024-03-06T08:53:37;102093.81;;;5.46;90.55
76551;BME280;68768;53.156;18.164;2024-03-06T08:56:04;102090.65;;;5.47;90.69
76551;BME280;68768;53.156;18.164;2024-03-06T08:58:30;102092.59;;;5.50;90.40
76551;BME280;68768;53.156;18.164;2024-03-06T09:00:56;102092.41;;;5.51;90.11
76551;BME280;68768;53.156;18.164;2024-03-06T09:03:24;102088.91;;;5.54;89.88
76551;BME280;68768;53.156;18.164;2024-03-06T09:05:57;102087.53;;;5.62;89.74
76551;BME280;68768;53.156;18.164;2024-03-06T09:08:23;102088.95;;;5.65;89.37
76551;BME280;68768;53.156;18.164;2024-03-06T09:10:49;102087.73;;;5.69;89.37
76551;BME280;68768;53.156;18.164;2024-03-06T09:13:15;102091.64;;;5.75;88.95
76551;BME280;68768;53.156;18.164;2024-03-06T09:15:41;102092.36;;;5.82;88.48
76551;BME280;68768;53.156;18.164;2024-03-06T09:18:07;102097.35;;;5.89;88.70
76551;BME280;68768;53.156;18.164;2024-03-06T09:20:33;102092.63;;;5.97;88.60
76551;BME280;68768;53.156;18.164;2024-03-06T09:22:59;102089.45;;;6.03;88.47
76551;BME280;68768;53.156;18.164;2024-03-06T09:25:26;102091.59;;;6.08;88.21
76551;BME280;68768;53.156;18.164;2024-03-06T09:27:52;102093.18;;;6.13;88.59
76551;BME280;68768;53.156;18.164;2024-03-06T09:30:19;102092.85;;;6.16;88.01
76551;BME280;68768;53.156;18.164;2024-03-06T09:32:45;102096.38;;;6.17;87.81
76551;BME280;68768;53.156;18.164;2024-03-06T09:35:11;102095.14;;;6.19;87.78
76551;BME280;68768;53.156;18.164;2024-03-06T09:37:37;102095.15;;;6.20;87.79
76551;BME280;68768;53.156;18.164;2024-03-06T09:40:04;102096.20;;;6.20;87.55
76551;BME280;68768;53.156;18.164;2024-03-06T09:42:30;102096.73;;;6.20;87.85
76551;BME280;68768;53.156;18.164;2024-03-06T09:44:56;102098.13;;;6.22;87.53
76551;BME280;68768;53.156;18.164;2024-03-06T09:47:22;102102.01;;;6.22;86.57
76551;BME280;68768;53.156;18.164;2024-03-06T09:49:53;102099.73;;;6.23;86.55
76551;BME280;68768;53.156;18.164;2024-03-06T09:52:19;102099.55;;;6.26;86.90
76551;BME280;68768;53.156;18.164;2024-03-06T09:54:47;102101.33;;;6.30;86.60
76551;BME280;68768;53.156;18.164;2024-03-06T09:57:14;102109.95;;;6.33;86.55
76551;BME280;68768;53.156;18.164;2024-03-06T09:59:41;102112.44;;;6.37;86.10
